Etusivu
METAR-TAF:

METAR-TAF

Lentoasemat :

Sotilaslentoasema

Tafraoui, Algeria

Leveyspiiri: 35-32-33N, Pituuspiiri: 000-31-56W, korkeus merenpinnasta: 112 m

Tämänhetkinen sää

Tämä raportti tehtiin 3 tuntia ja 2 minuuttia sitten, kello 09.00 UTC
Tuuli 4 kn etelästä/lounaasta
Lämpötila 19°C
Kosteus 56%
Ilmanpaine 1013 hPa
Näkyvyys 10 km tai enemmän
Hajanaisia pilviä 3000 ft:n korkeudessa

METAR: DAOL 010900Z 20004KT 9999 SCT030 19/10 Q1013

Aika: 13:02 (12:02 UTC)


TAF: puuttuu

Säähavainnot ja -ennusteet yli 4000 lentoasemalta (METAR- ja TAF-raportit).

Käytössä olevat sääasemat on merkitty karttaan keltaisilla ja punaisilla pisteillä.

Aseta hiiri pisteen päälle nähdäksesi sääaseman nimen.

Klikkaa sitten nähdäksesi säähavainnot ja -ennusteet.

Kartan vaihtaminen: klikkaa mustalla rastilla varustettuja vihreitä pisteitä, niin voit zoomata sisään; viivalla varustettua vihreää pistettä, niin voit zoomata ulos tai vihreitä nuolia, niin pääset viereisille kartoille.


METAR-TAF: